Airfield :
LOGIN :

Register | Disclaimer

   EN    FR    IT 

 










Legend :    VFR   Marginal VFR   IFR   Intensive IFR   Very Intensive IFR
Visi :
Ceiling :
>= 8 km
>= 3000ft
5 to 8 km
1000 to 3000 ft
1500m to 5 km
500 to 1000 ft
800 to 1500m
200 to 500 ft
< 800m
< 200 ft
Symbols :   Thunderstorms  Fog  Heavy snow  Heavy precipitations  Wind > 20 kt
SIGMETs :     Misc.  Thunderstorms  Icing  Turbulence  Mountain Waves  Volcanic Ashes







- Airport Elevation : 0 ft


ENSL - Sleipner A Platform

CURRENT METAR :
  • 191150Z 27033KT CAVOK 12/06 Q1014 W10/S5

EXPIRED METARs :
  • 191120Z 27037KT 9999 FEW040 12/06 Q1013 W10/S5
  • 191050Z 27036KT 9999 FEW040 12/06 Q1013 W10/S5
  • 191020Z 26036KT 9999 FEW025 11/06 Q1013 W10/S5
  • 190950Z 26035KT 9999 FEW025 11/06 Q1013 W10/S5

TAF TAF ENSL
Valid from the 19 at 12:00 until the 19 at 17:00 UTC


191100Z 1912/1917 27035KT 9999 FEW025 SCT050
BECMG 1913/1915 25022KT
No reported NOTAMs for that airfield.
1 SIGMET reported for the Scottish FIR (EGPX) :
 
Severe turbulence
EGPX SIGMET 04 VALID 191000/191400 EGRR
EGPX SCOTTISH FIR SEV TURB FCST NE OF LINE N6100 W00729 - N5813 E00258 SFC/FL060 MOV NE 10KT NC=



MET'MAP, your aeronautical weather chart ! - Copyright ORBIFLY December 2007 - Disclaimer

ORBIFLY MET'MAP TEAM :

Programming & Development : Alexandra Zaïnal
Concept & Development : Baudouin d'Aumeries
Co-Development & Prog : Marc-Olivier Méhu
Technical & hardware support : Manuel Goepfert

Contact : metmap@orbifly.com




SOURCES & CREDITS :

   NOAA